Latest Weather Observations for Lake Macquarie - Cooranbong

IDN60901

Issued at 8:41 am EST Friday 21 July 2017 (issued every 10 minutes, with the page automatically refreshed every 10 minutes)

About weather observations | Map of Sydney area stations | Latest observations for Sydney area | Other Formats
Station Details ID: 061412 Name: LAKE MACQUARIE AWS Lat: -33.09 Lon: 151.46 Height: 6.0 m
Data from the previous 72 hours. | See also: Recent months at Lake Macquarie - Cooranbong
Date/Time
EST
Temp
°C
App
Temp
°C
Dew
Point
°C
Rel
Hum
%
Delta-T
°C
Wind Press
QNH
hPa
Press
MSL
hPa
Rain since
9am
mm
Dir  Spd
km/h
Gust
km/h
Spd
kts
Gust
kts
21/08:30am 10.5 7.1 1.6 54 3.7 WSW 9 20 5 11 1020.6 1020.6 0.0
21/08:00am 10.0 6.5 1.1 54 3.7 SW 9 17 5 9 1020.2 1020.2 0.0
21/07:30am 9.5 6.3 0.7 54 3.6 WSW 7 15 4 8 1020.0 1020.0 0.0
21/07:00am 9.3 6.1 0.5 54 3.5 WSW 7 19 4 10 1019.4 1019.4 0.0
21/06:30am 9.2 5.6 0.4 54 3.5 WSW 9 19 5 10 1019.5 1019.5 0.0
21/06:00am 9.1 5.5 0.6 55 3.4 WSW 9 19 5 10 1019.1 1019.1 0.0
21/05:30am 8.8 5.6 0.5 56 3.3 WSW 7 11 4 6 1018.6 1018.6 0.0
21/05:00am 8.9 5.7 0.6 56 3.3 SW 7 15 4 8 1018.4 1018.4 0.0
21/04:30am 8.8 5.6 1.0 58 3.2 SW 7 13 4 7 1018.1 1018.1 0.0
21/04:00am 4.1 1.5 0.8 79 1.3 SW 4 7 2 4 1018.0 1018.0 0.0
21/03:30am 5.3 2.7 1.2 75 1.6 WSW 4 9 2 5 1017.9 1017.9 0.0
21/03:00am 5.0 2.5 1.3 77 1.4 W 4 7 2 4 1017.8 1017.8 0.0
21/02:30am 4.2 2.1 1.4 82 1.1 ESE 2 4 1 2 1017.7 1017.7 0.0
21/02:00am 4.4 2.5 0.7 77 1.4 CALM 0 2 0 1 1017.5 1017.5 0.0
21/01:30am 4.9 3.1 0.9 75 1.6 CALM 0 0 0 0 1017.4 1017.4 0.0
21/01:00am 7.7 5.0 0.4 60 2.9 WNW 4 6 2 3 1017.3 1017.3 0.0
21/12:30am 5.9 3.3 0.7 69 2.0 NW 4 7 2 4 1017.5 1017.5 0.0
21/12:00am 7.8 5.1 0.1 58 3.0 W 4 6 2 3 1017.2 1017.2 0.0
 
Date/Time
EST
Temp
°C
App
Temp
°C
Dew
Point
°C
Rel
Hum
%
Delta-T
°C
Wind Press
QNH
hPa
Press
MSL
hPa
Rain since
9am
mm
Dir  Spd
km/h
Gust
km/h
Spd
kts
Gust
kts
20/11:30pm 8.8 6.1 0.3 55 3.4 W 4 7 2 4 1017.2 1017.2 0.0
20/11:00pm 8.4 6.1 0.1 56 3.3 W 2 6 1 3 1017.2 1017.2 0.0
20/10:30pm 10.7 7.6 0.2 48 4.3 WSW 6 13 3 7 1016.9 1016.9 0.0
20/10:00pm 11.1 7.9 0.5 48 4.3 WSW 7 13 4 7 1016.6 1016.6 0.0
20/09:30pm 10.7 8.0 0.2 48 4.3 WNW 4 9 2 5 1016.6 1016.6 0.0
20/09:00pm 12.1 8.8 0.2 44 4.9 W 7 17 4 9 1016.0 1016.0 0.0
20/08:30pm 12.3 9.0 -0.2 42 5.1 W 7 11 4 6 1016.1 1016.1 0.0
20/08:00pm 12.6 8.5 -0.3 41 5.3 W 11 24 6 13 1015.9 1015.9 0.0
20/07:30pm 12.8 8.7 -0.4 40 5.4 W 11 24 6 13 1015.5 1015.5 0.0
20/07:00pm 12.5 9.0 -1.1 39 5.5 W 7 17 4 9 1015.2 1015.2 0.0
20/06:30pm 12.2 8.9 -1.0 40 5.3 WSW 6 13 3 7 1014.8 1014.8 0.0
20/06:00pm 13.3 9.9 -1.8 35 6.0 W 6 13 3 7 1014.1 1014.1 0.0
20/05:30pm 14.0 10.6 -2.4 32 6.5 WSW 6 13 3 7 1013.5 1013.5 0.0
20/05:00pm 15.0 11.3 -2.9 29 7.1 SW 7 15 4 8 1013.0 1013.0 0.0
20/04:30pm 16.6 12.8 -3.5 25 8.0 WSW 7 22 4 12 1012.4 1012.4 0.0
20/04:00pm 17.5 12.5 -4.4 22 8.6 W 13 24 7 13 1012.0 1012.0 0.0
20/03:30pm 18.2 13.6 -4.5 21 9.0 WSW 11 22 6 12 1011.7 1011.7 0.0
20/03:00pm 18.6 14.1 -3.5 22 9.0 W 11 22 6 12 1011.6 1011.6 0.0
20/02:30pm 18.9 14.8 -3.3 22 9.1 WSW 9 22 5 12 1011.5 1011.5 0.0
20/02:00pm 18.5 14.4 -3.0 23 8.8 WSW 9 17 5 9 1011.7 1011.7 0.0
20/01:30pm 17.8 11.9 -2.5 25 8.3 W 19 30 10 16 1011.6 1011.6 0.0
20/01:00pm 17.5 11.4 -2.7 25 8.2 W 20 35 11 19 1011.8 1011.8 0.0
20/12:30pm 17.8 12.5 -0.9 28 7.9 WNW 17 30 9 16 1012.2 1012.2 0.0
20/12:00pm 17.4 13.3 0.1 31 7.5 W 11 24 6 13 1012.4 1012.4 0.0
20/11:30am 16.4 11.6 0.5 34 6.9 WNW 15 30 8 16 1013.2 1013.2 0.0
20/11:00am 15.8 11.5 1.2 37 6.4 WNW 13 26 7 14 1013.8 1013.8 0.0
20/10:30am 15.2 11.3 1.4 39 6.0 WNW 11 24 6 13 1014.2 1014.2 0.0
20/10:00am 14.6 11.3 2.5 44 5.4 NW 9 19 5 10 1014.6 1014.6 0.0
20/09:30am 14.3 11.3 2.2 44 5.3 WNW 7 13 4 7 1014.6 1014.6 0.0
20/09:00am 13.5 10.8 2.7 48 4.8 NW 6 11 3 6 1014.4 1014.4 0.0
20/08:30am 12.6 8.9 2.5 50 4.4 WNW 11 26 6 14 1014.3 1014.3 0.0
20/08:00am 11.9 8.6 2.6 53 4.0 WNW 9 17 5 9 1013.9 1013.9 0.0
20/07:30am 11.2 7.6 3.0 57 3.6 NW 11 19 6 10 1013.8 1013.8 0.0
20/07:00am 8.2 5.0 2.9 69 2.2 N 9 11 5 6 1013.4 1013.4 0.0
20/06:30am 9.9 7.3 4.1 67 2.6 N 7 11 4 6 1013.3 1013.3 0.0
20/06:00am 6.6 4.7 3.0 78 1.5 NNW 2 4 1 2 1013.4 1013.4 0.0
20/05:30am 8.5 6.1 4.1 74 1.9 NNW 6 7 3 4 1013.3 1013.3 0.0
20/05:00am 9.7 7.4 5.5 75 1.9 N 7 11 4 6 1012.9 1012.9 0.0
20/04:30am 6.6 4.4 3.6 81 1.3 N 4 6 2 3 1012.6 1012.6 0.0
20/04:00am 8.8 6.8 4.2 73 2.0 N 4 6 2 3 1012.7 1012.7 0.0
20/03:30am 11.0 9.0 4.2 63 3.0 WNW 4 11 2 6 1012.8 1012.8 0.0
20/03:00am 11.5 9.0 4.5 62 3.2 WNW 7 11 4 6 1012.7 1012.7 0.0
20/02:30am 11.3 8.9 4.3 62 3.1 WNW 6 13 3 7 1012.3 1012.3 0.0
20/02:00am 8.6 6.6 4.2 74 1.9 WNW 4 7 2 4 1012.1 1012.1 0.0
20/01:30am 9.2 8.0 4.4 72 2.1 CALM 0 4 0 2 1011.6 1011.6 0.0
20/01:00am 9.3 7.6 3.9 69 2.4 NNE 2 6 1 3 1011.5 1011.5 0.0
20/12:30am 11.5 9.4 4.0 60 3.3 WNW 4 11 2 6 1011.7 1011.7 0.0
20/12:00am 10.3 8.6 4.0 65 2.8 NW 2 7 1 4 1012.0 1012.0 0.0
 
Date/Time
EST
Temp
°C
App
Temp
°C
Dew
Point
°C
Rel
Hum
%
Delta-T
°C
Wind Press
QNH
hPa
Press
MSL
hPa
Rain since
9am
mm
Dir  Spd
km/h
Gust
km/h
Spd
kts
Gust
kts
19/11:30pm 10.1 8.0 3.8 65 2.8 NNW 4 7 2 4 1012.0 1012.0 0.0
19/11:00pm 11.7 9.2 4.0 59 3.4 NNW 6 9 3 5 1012.1 1012.1 0.0
19/10:30pm 12.5 10.0 4.0 56 3.8 WNW 6 15 3 8 1012.2 1012.2 0.0
19/10:00pm 12.0 9.9 3.8 57 3.7 NW 4 7 2 4 1012.1 1012.1 0.0
19/09:30pm 13.5 10.4 3.8 52 4.4 W 9 19 5 10 1011.6 1011.6 0.0
19/09:00pm 13.4 10.3 3.8 52 4.3 W 9 20 5 11 1011.4 1011.4 0.0
19/08:30pm 13.6 9.4 3.7 51 4.5 WNW 15 26 8 14 1011.3 1011.3 0.0
19/08:00pm 13.6 10.1 3.7 51 4.5 WNW 11 20 6 11 1011.0 1011.0 0.0
19/07:30pm 13.9 9.6 3.4 49 4.7 W 15 26 8 14 1010.6 1010.6 0.0
19/07:00pm 13.7 10.1 3.2 49 4.7 W 11 20 6 11 1010.2 1010.2 0.0
19/06:30pm 13.9 9.9 3.1 48 4.8 W 13 26 7 14 1009.7 1009.7 0.0
19/06:00pm 14.3 10.7 2.9 46 5.1 W 11 20 6 11 1009.5 1009.5 0.0
19/05:30pm 14.7 10.3 2.6 44 5.4 W 15 24 8 13 1009.1 1009.1 0.0
19/05:00pm 15.5 11.1 2.7 42 5.8 W 15 28 8 15 1008.5 1008.5 0.0
19/04:30pm 15.6 12.3 2.4 41 5.9 WSW 9 17 5 9 1007.9 1007.9 0.0
19/04:00pm 17.2 13.5 2.4 37 6.7 WSW 11 24 6 13 1007.3 1007.3 0.0
19/03:30pm 17.1 13.0 2.3 37 6.7 WSW 13 28 7 15 1007.0 1007.0 0.0
19/03:00pm 17.2 13.7 3.5 40 6.4 WSW 11 19 6 10 1006.7 1006.7 0.0
19/02:30pm 17.4 13.9 3.3 39 6.5 WSW 11 26 6 14 1006.2 1006.2 0.0
19/02:00pm 16.3 12.1 3.7 43 5.8 W 15 30 8 16 1006.2 1006.2 0.0
19/01:30pm 16.4 11.8 3.5 42 5.9 W 17 28 9 15 1006.2 1006.2 0.0
19/01:00pm 16.1 10.8 3.2 42 5.9 W 20 52 11 28 1006.4 1006.4 0.0
19/12:30pm 16.5 12.8 4.2 44 5.7 WSW 13 32 7 17 1006.6 1006.6 0.0
19/12:00pm 16.0 12.2 3.8 44 5.6 W 13 32 7 17 1007.0 1007.0 0.0
19/11:30am 15.7 11.9 4.1 46 5.4 W 13 32 7 17 1007.5 1007.5 0.0
19/11:00am 15.4 11.2 3.9 46 5.3 W 15 30 8 16 1008.1 1008.1 0.0
19/10:30am 15.2 12.2 4.3 48 5.1 WNW 9 17 5 9 1008.2 1008.2 0.0
19/10:00am 14.3 11.2 3.5 48 4.9 NW 9 17 5 9 1008.4 1008.4 0.0
19/09:30am 13.6 9.4 3.9 52 4.4 NW 15 28 8 15 1008.2 1008.2 0.0
19/09:00am 12.0 9.2 3.3 55 3.9 NW 7 20 4 11 1008.6 1008.6 0.0
19/08:30am 11.9 9.1 3.4 56 3.8 NW 7 15 4 8 1008.6 1008.6 0.0
19/08:00am 9.2 6.8 4.2 71 2.2 NW 6 13 3 7 1008.4 1008.4 0.0
19/07:30am 4.6 2.8 3.4 92 0.5 NNW 2 4 1 2 1008.9 1008.9 0.0
19/07:00am 3.7 2.1 2.5 92 0.5 CALM 0 0 0 0 1008.8 1008.8 0.0
19/06:30am 3.8 1.8 2.5 91 0.5 N 2 6 1 3 1008.7 1008.7 0.0
19/06:00am 4.4 2.9 2.9 90 0.6 CALM 0 0 0 0 1008.4 1008.4 0.0
19/05:30am 4.5 2.6 2.7 88 0.7 NW 2 4 1 2 1008.1 1008.1 0.0
19/05:00am 5.2 3.7 3.1 86 0.9 CALM 0 0 0 0 1008.1 1008.1 0.0
19/04:30am 6.0 3.7 2.5 78 1.4 NW 4 9 2 5 1008.1 1008.1 0.0
19/04:00am 8.1 5.7 1.9 65 2.6 NW 4 15 2 8 1008.3 1008.3 0.0
19/03:30am 8.9 6.5 2.0 62 2.9 NW 4 7 2 4 1008.1 1008.1 0.0
19/03:00am 6.9 5.4 3.0 76 1.6 CALM 0 0 0 0 1008.3 1008.3 0.0
19/02:30am 7.7 5.5 3.2 73 1.9 NNW 4 9 2 5 1008.4 1008.4 0.0
19/02:00am 8.3 6.9 3.4 71 2.1 CALM 0 4 0 2 1008.7 1008.7 0.0
19/01:30am 9.1 7.6 2.9 65 2.6 CALM 0 2 0 1 1008.9 1008.9 0.0
19/01:00am 10.5 9.0 3.1 60 3.2 CALM 0 4 0 2 1008.8 1008.8 0.0
19/12:30am 12.0 9.5 4.0 58 3.6 W 6 15 3 8 1008.9 1008.9 0.0
19/12:00am 9.3 7.3 4.5 72 2.1 N 4 7 2 4 1009.1 1009.1 0.0
 
Date/Time
EST
Temp
°C
App
Temp
°C
Dew
Point
°C
Rel
Hum
%
Delta-T
°C
Wind Press
QNH
hPa
Press
MSL
hPa
Rain since
9am
mm
Dir  Spd
km/h
Gust
km/h
Spd
kts
Gust
kts
18/11:30pm 7.8 6.2 4.6 80 1.4 WNW 2 4 1 2 1009.3 1009.3 0.0
18/11:00pm 8.2 7.0 4.6 78 1.6 CALM 0 0 0 0 1009.4 1009.4 0.0
18/10:30pm 8.6 7.2 5.5 81 1.4 N 2 2 1 1 1009.6 1009.6 0.0
18/10:00pm 9.9 8.3 4.7 70 2.3 N 2 6 1 3 1009.7 1009.7 0.0
18/09:30pm 10.9 9.7 4.4 64 2.9 CALM 0 0 0 0 1009.7 1009.7 0.0
18/09:00pm 12.1 10.1 4.3 59 3.5 NNE 4 6 2 3 1009.7 1009.7 0.0
18/08:30pm 17.1 14.3 2.3 37 6.7 W 6 11 3 6 1009.5 1009.5 0.0
18/08:00pm 17.5 14.4 3.8 40 6.4 W 9 17 5 9 1009.4 1009.4 0.0
18/07:50pm 17.4 14.1 4.7 43 6.0 WSW 11 20 6 11 1009.4 1009.4 0.0
18/07:30pm 12.3 11.5 8.2 76 2.0 WSW 2 4 1 2 1009.1 1009.1 0.0
18/07:00pm 13.6 13.3 8.7 72 2.5 CALM 0 0 0 0 1008.7 1008.7 0.0
18/06:30pm 15.3 14.9 8.1 62 3.6 CALM 0 0 0 0 1008.2 1008.2 0.0
18/06:00pm 18.4 17.3 8.4 52 5.2 NNW 4 7 2 4 1008.0 1008.0 0.0
18/05:30pm 20.1 18.5 7.8 45 6.3 NNW 6 13 3 7 1007.8 1007.8 0.0
18/05:00pm 21.1 18.9 7.7 42 6.9 NNW 9 17 5 9 1007.7 1007.7 0.0
18/04:30pm 21.6 19.4 7.8 41 7.2 NNW 9 15 5 8 1007.6 1007.6 0.0
18/04:00pm 22.1 19.9 7.9 40 7.4 NNW 9 19 5 10 1007.7 1007.7 0.0
18/03:30pm 22.8 20.4 7.0 36 8.2 NW 9 17 5 9 1007.8 1007.8 0.0
18/03:00pm 23.7 20.4 6.5 33 8.9 NW 13 30 7 16 1008.0 1008.0 0.0
18/02:30pm 23.9 20.9 7.9 36 8.4 NNW 13 26 7 14 1008.2 1008.2 0.0
18/02:00pm 23.5 19.9 6.7 34 8.7 NNW 15 33 8 18 1008.5 1008.5 0.0
18/01:30pm 23.5 20.6 8.0 37 8.2 NW 13 20 7 11 1008.9 1008.9 0.0
18/01:00pm 23.0 20.8 9.4 42 7.3 NNW 11 19 6 10 1009.8 1009.8 0.0
18/12:30pm 22.2 19.6 9.4 44 6.9 NNW 13 26 7 14 1010.7 1010.7 0.0
18/12:00pm 21.9 19.2 8.8 43 7.0 NNW 13 26 7 14 1011.5 1011.5 0.0
18/11:30am 21.1 19.1 10.0 49 6.0 NNW 11 17 6 9 1012.3 1012.3 0.0
18/11:00am 20.9 19.8 10.7 52 5.6 N 7 17 4 9 1013.1 1013.1 0.0
18/10:30am 20.1 18.4 9.7 51 5.6 NNW 9 17 5 9 1013.9 1013.9 0.0
18/10:00am 19.7 18.4 10.1 54 5.1 N 7 15 4 8 1014.5 1014.5 0.0
18/09:30am 18.9 17.7 10.2 57 4.7 NNW 7 13 4 7 1014.7 1014.7 0.0
18/09:00am 18.1 17.2 10.5 61 4.1 NNW 6 9 3 5 1014.9 1014.9 0.0

Latest Capital City Observations: Canberra | Sydney | Melbourne | Brisbane | Adelaide | Perth | Hobart | Darwin

Other Formats:

Comma delimited format used in spreadsheet applications
http://www.bom.gov.au/fwo/IDN60901/IDN60901.95767.axf

JavaScript Object Notation format (JSON) in row-major order
http://www.bom.gov.au/fwo/IDN60901/IDN60901.95767.json